sensor_id;sensor_type;location;lat;lon;timestamp;pressure;altitude;pressure_sealevel;temperature
6550;BMP280;15142;48.888;9.134;2023-04-25T00:01:13;97469.66;;;8.03
6550;BMP280;15142;48.888;9.134;2023-04-25T00:03:42;97465.06;;;8.05
6550;BMP280;15142;48.888;9.134;2023-04-25T00:06:12;97470.66;;;8.07
6550;BMP280;15142;48.888;9.134;2023-04-25T00:08:43;97464.53;;;8.08
6550;BMP280;15142;48.888;9.134;2023-04-25T00:11:12;97464.25;;;8.09
6550;BMP280;15142;48.888;9.134;2023-04-25T00:13:40;97464.06;;;8.06
6550;BMP280;15142;48.888;9.134;2023-04-25T00:16:10;97458.41;;;8.09
6550;BMP280;15142;48.888;9.134;2023-04-25T00:18:41;97463.00;;;8.12
6550;BMP280;15142;48.888;9.134;2023-04-25T00:21:11;97467.63;;;8.05
6550;BMP280;15142;48.888;9.134;2023-04-25T00:23:40;97459.47;;;8.08
6550;BMP280;15142;48.888;9.134;2023-04-25T00:26:11;97455.88;;;8.09
6550;BMP280;15142;48.888;9.134;2023-04-25T00:28:40;97460.97;;;8.09
6550;BMP280;15142;48.888;9.134;2023-04-25T00:31:08;97465.56;;;8.07
6550;BMP280;15142;48.888;9.134;2023-04-25T00:33:37;97473.91;;;8.12
6550;BMP280;15142;48.888;9.134;2023-04-25T00:36:09;97472.63;;;8.15
6550;BMP280;15142;48.888;9.134;2023-04-25T00:38:38;97468.06;;;8.12
6550;BMP280;15142;48.888;9.134;2023-04-25T00:41:07;97470.13;;;8.10
6550;BMP280;15142;48.888;9.134;2023-04-25T00:43:36;97470.88;;;8.10
6550;BMP280;15142;48.888;9.134;2023-04-25T00:46:05;97465.03;;;8.10
6550;BMP280;15142;48.888;9.134;2023-04-25T00:48:33;97450.88;;;8.04
6550;BMP280;15142;48.888;9.134;2023-04-25T00:51:03;97449.84;;;8.05
6550;BMP280;15142;48.888;9.134;2023-04-25T00:53:34;97443.75;;;8.06
6550;BMP280;15142;48.888;9.134;2023-04-25T00:56:03;97444.25;;;8.03
6550;BMP280;15142;48.888;9.134;2023-04-25T00:58:32;97445.25;;;8.07
6550;BMP280;15142;48.888;9.134;2023-04-25T01:01:00;97437.88;;;8.05
6550;BMP280;15142;48.888;9.134;2023-04-25T01:03:32;97434.63;;;8.00
6550;BMP280;15142;48.888;9.134;2023-04-25T01:06:01;97431.81;;;8.01
6550;BMP280;15142;48.888;9.134;2023-04-25T01:08:30;97437.94;;;8.01
6550;BMP280;15142;48.888;9.134;2023-04-25T01:11:02;97437.88;;;8.05
6550;BMP280;15142;48.888;9.134;2023-04-25T01:13:31;97437.69;;;7.97
6550;BMP280;15142;48.888;9.134;2023-04-25T01:16:00;97436.22;;;7.91
6550;BMP280;15142;48.888;9.134;2023-04-25T01:18:29;97442.28;;;7.95
6550;BMP280;15142;48.888;9.134;2023-04-25T01:21:06;97434.97;;;7.94
6550;BMP280;15142;48.888;9.134;2023-04-25T01:23:37;97438.75;;;7.96
6550;BMP280;15142;48.888;9.134;2023-04-25T01:26:06;97437.00;;;7.92
6550;BMP280;15142;48.888;9.134;2023-04-25T01:28:37;97437.03;;;7.87
6550;BMP280;15142;48.888;9.134;2023-04-25T01:31:07;97427.44;;;7.79
6550;BMP280;15142;48.888;9.134;2023-04-25T01:33:38;97429.97;;;7.79
6550;BMP280;15142;48.888;9.134;2023-04-25T01:36:09;97422.13;;;7.75
6550;BMP280;15142;48.888;9.134;2023-04-25T01:38:37;97419.06;;;7.78
6550;BMP280;15142;48.888;9.134;2023-04-25T01:41:07;97426.16;;;7.81
6550;BMP280;15142;48.888;9.134;2023-04-25T01:43:35;97433.75;;;7.86
6550;BMP280;15142;48.888;9.134;2023-04-25T01:46:04;97431.69;;;7.88
6550;BMP280;15142;48.888;9.134;2023-04-25T01:48:33;97433.69;;;7.91
6550;BMP280;15142;48.888;9.134;2023-04-25T01:51:02;97431.94;;;7.92
6550;BMP280;15142;48.888;9.134;2023-04-25T01:53:33;97433.69;;;7.91
6550;BMP280;15142;48.888;9.134;2023-04-25T01:56:04;97433.97;;;7.90
6550;BMP280;15142;48.888;9.134;2023-04-25T01:58:35;97429.63;;;7.90
6550;BMP280;15142;48.888;9.134;2023-04-25T02:01:29;97431.94;;;7.92
6550;BMP280;15142;48.888;9.134;2023-04-25T02:04:12;97433.69;;;7.91
6550;BMP280;15142;48.888;9.134;2023-04-25T02:06:41;97434.22;;;7.88
6550;BMP280;15142;48.888;9.134;2023-04-25T02:09:13;97432.22;;;7.85
6550;BMP280;15142;48.888;9.134;2023-04-25T02:11:47;97434.25;;;7.83
6550;BMP280;15142;48.888;9.134;2023-04-25T02:14:45;97427.69;;;7.82
6550;BMP280;15142;48.888;9.134;2023-04-25T02:17:18;97423.09;;;7.84
6550;BMP280;15142;48.888;9.134;2023-04-25T02:19:47;97422.59;;;7.82
6550;BMP280;15142;48.888;9.134;2023-04-25T02:22:16;97427.13;;;7.85
6550;BMP280;15142;48.888;9.134;2023-04-25T02:24:48;97427.34;;;7.89
6550;BMP280;15142;48.888;9.134;2023-04-25T02:27:16;97423.81;;;7.90
6550;BMP280;15142;48.888;9.134;2023-04-25T02:29:45;97413.91;;;7.88
6550;BMP280;15142;48.888;9.134;2023-04-25T02:32:14;97416.94;;;7.90
6550;BMP280;15142;48.888;9.134;2023-04-25T02:34:42;97413.34;;;7.96
6550;BMP280;15142;48.888;9.134;2023-04-25T02:37:10;97410.53;;;7.98
6550;BMP280;15142;48.888;9.134;2023-04-25T02:39:39;97411.78;;;8.00
6550;BMP280;15142;48.888;9.134;2023-04-25T02:42:10;97410.72;;;8.01
6550;BMP280;15142;48.888;9.134;2023-04-25T02:44:39;97410.22;;;8.04
6550;BMP280;15142;48.888;9.134;2023-04-25T02:47:08;97411.72;;;8.05
6550;BMP280;15142;48.888;9.134;2023-04-25T02:49:36;97416.81;;;8.05
6550;BMP280;15142;48.888;9.134;2023-04-25T02:52:05;97417.56;;;8.05
6550;BMP280;15142;48.888;9.134;2023-04-25T02:54:34;97414.75;;;8.07
6550;BMP280;15142;48.888;9.134;2023-04-25T02:57:03;97415.56;;;8.02
6550;BMP280;15142;48.888;9.134;2023-04-25T02:59:38;97414.53;;;8.03
6550;BMP280;15142;48.888;9.134;2023-04-25T03:02:07;97405.13;;;8.04
6550;BMP280;15142;48.888;9.134;2023-04-25T03:04:35;97405.72;;;7.96
6550;BMP280;15142;48.888;9.134;2023-04-25T03:07:04;97396.03;;;7.98
6550;BMP280;15142;48.888;9.134;2023-04-25T03:09:33;97399.31;;;7.99
6550;BMP280;15142;48.888;9.134;2023-04-25T03:12:03;97399.81;;;8.01
6550;BMP280;15142;48.888;9.134;2023-04-25T03:14:33;97398.53;;;8.03
6550;BMP280;15142;48.888;9.134;2023-04-25T03:17:04;97396.03;;;7.98
6550;BMP280;15142;48.888;9.134;2023-04-25T03:19:35;97388.94;;;7.95
6550;BMP280;15142;48.888;9.134;2023-04-25T03:22:03;97393.53;;;7.93
6550;BMP280;15142;48.888;9.134;2023-04-25T03:24:32;97391.22;;;7.97
6550;BMP280;15142;48.888;9.134;2023-04-25T03:27:02;97400.56;;;8.01
6550;BMP280;15142;48.888;9.134;2023-04-25T03:29:31;97397.28;;;8.01
6550;BMP280;15142;48.888;9.134;2023-04-25T03:32:06;97398.00;;;8.06
6550;BMP280;15142;48.888;9.134;2023-04-25T03:34:34;97398.25;;;8.04
6550;BMP280;15142;48.888;9.134;2023-04-25T03:37:03;97394.38;;;8.12
6550;BMP280;15142;48.888;9.134;2023-04-25T03:39:36;97392.34;;;8.14
6550;BMP280;15142;48.888;9.134;2023-04-25T03:42:06;97387.50;;;8.12
6550;BMP280;15142;48.888;9.134;2023-04-25T03:44:35;97394.38;;;8.12
6550;BMP280;15142;48.888;9.134;2023-04-25T03:47:06;97384.47;;;8.10
6550;BMP280;15142;48.888;9.134;2023-04-25T03:49:35;97386.53;;;8.08
6550;BMP280;15142;48.888;9.134;2023-04-25T03:52:05;97387.84;;;8.06
6550;BMP280;15142;48.888;9.134;2023-04-25T03:54:38;97389.66;;;8.01
6550;BMP280;15142;48.888;9.134;2023-04-25T03:57:16;97392.69;;;8.02
6550;BMP280;15142;48.888;9.134;2023-04-25T03:59:44;97389.34;;;8.07
6550;BMP280;15142;48.888;9.134;2023-04-25T04:02:17;97393.09;;;8.09
6550;BMP280;15142;48.888;9.134;2023-04-25T04:04:46;97387.06;;;8.05
6550;BMP280;15142;48.888;9.134;2023-04-25T04:07:15;97398.53;;;8.03
6550;BMP280;15142;48.888;9.134;2023-04-25T04:09:46;97387.84;;;8.06
6550;BMP280;15142;48.888;9.134;2023-04-25T04:12:23;97390.84;;;8.08
6550;BMP280;15142;48.888;9.134;2023-04-25T04:14:52;97392.66;;;8.07
6550;BMP280;15142;48.888;9.134;2023-04-25T04:17:23;97401.00;;;8.08
6550;BMP280;15142;48.888;9.134;2023-04-25T04:19:52;97384.81;;;8.04
6550;BMP280;15142;48.888;9.134;2023-04-25T04:22:22;97396.69;;;8.08
6550;BMP280;15142;48.888;9.134;2023-04-25T04:24:55;97399.47;;;8.12
6550;BMP280;15142;48.888;9.134;2023-04-25T04:27:59;97398.97;;;8.10
6550;BMP280;15142;48.888;9.134;2023-04-25T04:30:37;97396.13;;;8.11
6550;BMP280;15142;48.888;9.134;2023-04-25T04:33:10;97392.84;;;8.11
6550;BMP280;15142;48.888;9.134;2023-04-25T04:35:41;97386.22;;;8.15
6550;BMP280;15142;48.888;9.134;2023-04-25T04:38:10;97398.97;;;8.10
6550;BMP280;15142;48.888;9.134;2023-04-25T04:40:40;97399.50;;;8.07
6550;BMP280;15142;48.888;9.134;2023-04-25T04:43:18;97402.53;;;8.09
6550;BMP280;15142;48.888;9.134;2023-04-25T04:46:01;97398.47;;;8.08
6550;BMP280;15142;48.888;9.134;2023-04-25T04:48:57;97397.41;;;8.14
6550;BMP280;15142;48.888;9.134;2023-04-25T04:51:50;97404.44;;;8.22
6550;BMP280;15142;48.888;9.134;2023-04-25T04:54:35;97408.75;;;8.21
6550;BMP280;15142;48.888;9.134;2023-04-25T04:57:13;97420.44;;;8.22
6550;BMP280;15142;48.888;9.134;2023-04-25T04:59:57;97419.66;;;8.27
6550;BMP280;15142;48.888;9.134;2023-04-25T05:03:05;97422.41;;;8.30
6550;BMP280;15142;48.888;9.134;2023-04-25T05:05:56;97421.59;;;8.34
6550;BMP280;15142;48.888;9.134;2023-04-25T05:08:25;97426.69;;;8.34
6550;BMP280;15142;48.888;9.134;2023-04-25T05:11:08;97431.22;;;8.37
6550;BMP280;15142;48.888;9.134;2023-04-25T05:13:48;97430.94;;;8.39
6550;BMP280;15142;48.888;9.134;2023-04-25T05:16:35;97431.66;;;8.44
6550;BMP280;15142;48.888;9.134;2023-04-25T05:19:19;97431.81;;;8.53
6550;BMP280;15142;48.888;9.134;2023-04-25T05:22:06;97436.38;;;8.56
6550;BMP280;15142;48.888;9.134;2023-04-25T05:24:50;97430.94;;;8.62
6550;BMP280;15142;48.888;9.134;2023-04-25T05:27:38;97429.03;;;8.72
6550;BMP280;15142;48.888;9.134;2023-04-25T05:30:28;97430.84;;;8.72
6550;BMP280;15142;48.888;9.134;2023-04-25T05:33:03;97418.34;;;8.75
6550;BMP280;15142;48.888;9.134;2023-04-25T05:35:32;97431.31;;;8.74
6550;BMP280;15142;48.888;9.134;2023-04-25T05:38:03;97436.94;;;8.71
6550;BMP280;15142;48.888;9.134;2023-04-25T05:41:01;97432.31;;;8.55
6550;BMP280;15142;48.888;9.134;2023-04-25T05:43:53;97431.16;;;8.42
6550;BMP280;15142;48.888;9.134;2023-04-25T05:46:28;97438.19;;;8.50
6550;BMP280;15142;48.888;9.134;2023-04-25T05:49:12;97435.50;;;8.42
6550;BMP280;15142;48.888;9.134;2023-04-25T05:52:03;97429.59;;;8.46
6550;BMP280;15142;48.888;9.134;2023-04-25T05:54:34;97433.06;;;8.55
6550;BMP280;15142;48.888;9.134;2023-04-25T05:57:04;97427.56;;;8.66
6550;BMP280;15142;48.888;9.134;2023-04-25T05:59:32;97434.19;;;8.67
6550;BMP280;15142;48.888;9.134;2023-04-25T06:02:01;97438.13;;;8.78
6550;BMP280;15142;48.888;9.134;2023-04-25T06:04:34;97433.38;;;8.72
6550;BMP280;15142;48.888;9.134;2023-04-25T06:07:03;97440.16;;;8.76
6550;BMP280;15142;48.888;9.134;2023-04-25T06:09:34;97443.59;;;8.85
6550;BMP280;15142;48.888;9.134;2023-04-25T06:12:07;97441.56;;;8.87
6550;BMP280;15142;48.888;9.134;2023-04-25T06:14:36;97452.50;;;8.88
6550;BMP280;15142;48.888;9.134;2023-04-25T06:17:05;97443.09;;;8.88
6550;BMP280;15142;48.888;9.134;2023-04-25T06:19:35;97448.88;;;8.94
6550;BMP280;15142;48.888;9.134;2023-04-25T06:22:04;97438.09;;;9.01
6550;BMP280;15142;48.888;9.134;2023-04-25T06:24:37;97444.00;;;9.15
6550;BMP280;15142;48.888;9.134;2023-04-25T06:27:06;97436.22;;;9.07
6550;BMP280;15142;48.888;9.134;2023-04-25T06:29:35;97434.09;;;9.14
6550;BMP280;15142;48.888;9.134;2023-04-25T06:32:04;97431.81;;;9.30
6550;BMP280;15142;48.888;9.134;2023-04-25T06:34:33;97439.91;;;9.19
6550;BMP280;15142;48.888;9.134;2023-04-25T06:37:01;97433.13;;;9.28
6550;BMP280;15142;48.888;9.134;2023-04-25T06:39:30;97429.72;;;9.51
6550;BMP280;15142;48.888;9.134;2023-04-25T06:42:01;97430.06;;;9.62
6550;BMP280;15142;48.888;9.134;2023-04-25T06:44:56;97427.88;;;9.38
6550;BMP280;15142;48.888;9.134;2023-04-25T06:47:25;97431.94;;;9.21
6550;BMP280;15142;48.888;9.134;2023-04-25T06:49:53;97434.09;;;9.32
6550;BMP280;15142;48.888;9.134;2023-04-25T06:52:22;97440.19;;;9.49
6550;BMP280;15142;48.888;9.134;2023-04-25T06:54:52;97432.63;;;9.44
6550;BMP280;15142;48.888;9.134;2023-04-25T06:57:35;97433.13;;;9.28
6550;BMP280;15142;48.888;9.134;2023-04-25T07:00:24;97439.41;;;9.17
6550;BMP280;15142;48.888;9.134;2023-04-25T07:02:54;97438.91;;;9.15
6550;BMP280;15142;48.888;9.134;2023-04-25T07:05:22;97435.34;;;9.16
6550;BMP280;15142;48.888;9.134;2023-04-25T07:07:51;97435.75;;;9.23
6550;BMP280;15142;48.888;9.134;2023-04-25T07:10:20;97434.03;;;9.19
6550;BMP280;15142;48.888;9.134;2023-04-25T07:12:53;97437.47;;;9.09
6550;BMP280;15142;48.888;9.134;2023-04-25T07:15:21;97433.53;;;8.98
6550;BMP280;15142;48.888;9.134;2023-04-25T07:17:51;97432.03;;;8.97
6550;BMP280;15142;48.888;9.134;2023-04-25T07:20:19;97441.22;;;8.94
6550;BMP280;15142;48.888;9.134;2023-04-25T07:22:48;97442.72;;;8.94
6550;BMP280;15142;48.888;9.134;2023-04-25T07:25:17;97450.84;;;8.96
6550;BMP280;15142;48.888;9.134;2023-04-25T07:27:46;97451.97;;;8.91
6550;BMP280;15142;48.888;9.134;2023-04-25T07:30:19;97444.81;;;8.93
6550;BMP280;15142;48.888;9.134;2023-04-25T07:32:48;97442.84;;;8.85
6550;BMP280;15142;48.888;9.134;2023-04-25T07:35:17;97452.91;;;8.94
6550;BMP280;15142;48.888;9.134;2023-04-25T07:37:47;97451.41;;;8.94
6550;BMP280;15142;48.888;9.134;2023-04-25T07:40:18;97460.50;;;8.99
6550;BMP280;15142;48.888;9.134;2023-04-25T07:42:51;97455.56;;;9.08
6550;BMP280;15142;48.888;9.134;2023-04-25T07:45:36;97462.84;;;9.14
6550;BMP280;15142;48.888;9.134;2023-04-25T07:48:05;97462.81;;;9.19
6550;BMP280;15142;48.888;9.134;2023-04-25T07:50:36;97466.56;;;9.22
6550;BMP280;15142;48.888;9.134;2023-04-25T07:53:05;97465.88;;;9.16
6550;BMP280;15142;48.888;9.134;2023-04-25T07:55:43;97464.91;;;9.12
6550;BMP280;15142;48.888;9.134;2023-04-25T07:58:15;97467.66;;;9.16
6550;BMP280;15142;48.888;9.134;2023-04-25T08:00:50;97469.47;;;9.15
6550;BMP280;15142;48.888;9.134;2023-04-25T08:03:45;97476.25;;;9.38
6550;BMP280;15142;48.888;9.134;2023-04-25T08:06:21;97485.13;;;9.22
6550;BMP280;15142;48.888;9.134;2023-04-25T08:08:58;97483.31;;;9.04
6550;BMP280;15142;48.888;9.134;2023-04-25T08:11:34;97475.22;;;8.84
6550;BMP280;15142;48.888;9.134;2023-04-25T08:14:03;97482.50;;;8.91
6550;BMP280;15142;48.888;9.134;2023-04-25T08:16:36;97486.75;;;8.95
6550;BMP280;15142;48.888;9.134;2023-04-25T08:19:05;97482.50;;;8.91
6550;BMP280;15142;48.888;9.134;2023-04-25T08:21:34;97493.44;;;8.68
6550;BMP280;15142;48.888;9.134;2023-04-25T08:24:06;97494.28;;;8.59
6550;BMP280;15142;48.888;9.134;2023-04-25T08:26:38;97507.25;;;8.57
6550;BMP280;15142;48.888;9.134;2023-04-25T08:29:09;97496.09;;;8.58
6550;BMP280;15142;48.888;9.134;2023-04-25T08:31:42;97515.84;;;8.66
6550;BMP280;15142;48.888;9.134;2023-04-25T08:34:13;97513.56;;;8.64
6550;BMP280;15142;48.888;9.134;2023-04-25T08:36:44;97513.97;;;8.48
6550;BMP280;15142;48.888;9.134;2023-04-25T08:39:38;97518.84;;;8.45
6550;BMP280;15142;48.888;9.134;2023-04-25T08:42:26;97519.91;;;8.39
6550;BMP280;15142;48.888;9.134;2023-04-25T08:44:55;97532.31;;;8.45
6550;BMP280;15142;48.888;9.134;2023-04-25T08:47:33;97526.69;;;8.48
6550;BMP280;15142;48.888;9.134;2023-04-25T08:50:04;97534.97;;;8.35
6550;BMP280;15142;48.888;9.134;2023-04-25T08:52:36;97550.50;;;8.29
6550;BMP280;15142;48.888;9.134;2023-04-25T08:55:09;97542.78;;;8.11
6550;BMP280;15142;48.888;9.134;2023-04-25T08:57:39;97556.00;;;8.08
6550;BMP280;15142;48.888;9.134;2023-04-25T09:00:10;97558.59;;;8.03
6550;BMP280;15142;48.888;9.134;2023-04-25T09:02:45;97563.91;;;8.01
6550;BMP280;15142;48.888;9.134;2023-04-25T09:05:14;97566.81;;;7.90
6550;BMP280;15142;48.888;9.134;2023-04-25T09:07:44;97568.81;;;7.93
6550;BMP280;15142;48.888;9.134;2023-04-25T09:10:12;97569.25;;;8.05
6550;BMP280;15142;48.888;9.134;2023-04-25T09:12:41;97572.56;;;8.01
6550;BMP280;15142;48.888;9.134;2023-04-25T09:15:11;97583.50;;;8.01
6550;BMP280;15142;48.888;9.134;2023-04-25T09:18:02;97586.09;;;7.96
6550;BMP280;15142;48.888;9.134;2023-04-25T09:20:41;97597.41;;;7.70
6550;BMP280;15142;48.888;9.134;2023-04-25T09:23:11;97595.16;;;7.64
6550;BMP280;15142;48.888;9.134;2023-04-25T09:25:39;97597.13;;;7.67
6550;BMP280;15142;48.888;9.134;2023-04-25T09:28:11;97600.94;;;7.69
6550;BMP280;15142;48.888;9.134;2023-04-25T09:30:39;97609.06;;;7.71
6550;BMP280;15142;48.888;9.134;2023-04-25T09:33:30;97605.03;;;7.66
6550;BMP280;15142;48.888;9.134;2023-04-25T09:36:03;97614.66;;;7.69
6550;BMP280;15142;48.888;9.134;2023-04-25T09:38:55;97614.13;;;7.71
6550;BMP280;15142;48.888;9.134;2023-04-25T09:41:27;97628.81;;;7.84
6550;BMP280;15142;48.888;9.134;2023-04-25T09:43:59;97626.25;;;7.89
6550;BMP280;15142;48.888;9.134;2023-04-25T09:46:33;97624.81;;;7.69
6550;BMP280;15142;48.888;9.134;2023-04-25T09:49:08;97628.06;;;7.79
6550;BMP280;15142;48.888;9.134;2023-04-25T09:51:54;97630.09;;;7.77
6550;BMP280;15142;48.888;9.134;2023-04-25T09:54:25;97631.59;;;7.88
6550;BMP280;15142;48.888;9.134;2023-04-25T09:57:09;97635.06;;;7.49
6550;BMP280;15142;48.888;9.134;2023-04-25T09:59:43;97638.09;;;7.56
6550;BMP280;15142;48.888;9.134;2023-04-25T10:02:14;97642.59;;;7.73
6550;BMP280;15142;48.888;9.134;2023-04-25T10:04:48;97658.34;;;7.70
6550;BMP280;15142;48.888;9.134;2023-04-25T10:07:23;97653.28;;;7.66
6550;BMP280;15142;48.888;9.134;2023-04-25T10:09:58;97662.94;;;7.64
6550;BMP280;15142;48.888;9.134;2023-04-25T10:12:28;97667.00;;;7.65
6550;BMP280;15142;48.888;9.134;2023-04-25T10:14:57;97666.53;;;7.53
6550;BMP280;15142;48.888;9.134;2023-04-25T10:17:27;97683.34;;;7.34
6550;BMP280;15142;48.888;9.134;2023-04-25T10:20:00;97694.53;;;7.08
6550;BMP280;15142;48.888;9.134;2023-04-25T10:22:34;97693.00;;;7.03
6550;BMP280;15142;48.888;9.134;2023-04-25T10:25:05;97693.00;;;7.07
6550;BMP280;15142;48.888;9.134;2023-04-25T10:27:35;97693.03;;;6.88
6550;BMP280;15142;48.888;9.134;2023-04-25T10:30:07;97700.88;;;6.72
6550;BMP280;15142;48.888;9.134;2023-04-25T10:32:38;97698.09;;;6.73
6550;BMP280;15142;48.888;9.134;2023-04-25T10:35:13;97700.38;;;6.75
6550;BMP280;15142;48.888;9.134;2023-04-25T10:38:05;97700.13;;;6.86
6550;BMP280;15142;48.888;9.134;2023-04-25T10:40:34;97702.66;;;6.86
6550;BMP280;15142;48.888;9.134;2023-04-25T10:43:33;97705.44;;;7.04
6550;BMP280;15142;48.888;9.134;2023-04-25T10:46:03;97712.28;;;7.04
6550;BMP280;15142;48.888;9.134;2023-04-25T10:48:46;97711.28;;;7.19
6550;BMP280;15142;48.888;9.134;2023-04-25T10:51:21;97708.47;;;7.31
6550;BMP280;15142;48.888;9.134;2023-04-25T10:54:00;97724.47;;;7.21
6550;BMP280;15142;48.888;9.134;2023-04-25T10:56:30;97718.88;;;7.24
6550;BMP280;15142;48.888;9.134;2023-04-25T10:59:08;97716.34;;;7.44
6550;BMP280;15142;48.888;9.134;2023-04-25T11:01:38;97708.72;;;7.44
6550;BMP280;15142;48.888;9.134;2023-04-25T11:04:19;97722.34;;;7.58
6550;BMP280;15142;48.888;9.134;2023-04-25T11:07:00;97720.59;;;7.53
6550;BMP280;15142;48.888;9.134;2023-04-25T11:09:32;97721.31;;;7.69
6550;BMP280;15142;48.888;9.134;2023-04-25T11:12:01;97727.91;;;7.69
6550;BMP280;15142;48.888;9.134;2023-04-25T11:14:30;97731.53;;;7.39
6550;BMP280;15142;48.888;9.134;2023-04-25T11:16:59;97721.88;;;7.46
6550;BMP280;15142;48.888;9.134;2023-04-25T11:19:29;97735.88;;;7.29
6550;BMP280;15142;48.888;9.134;2023-04-25T11:22:02;97726.19;;;7.45
6550;BMP280;15142;48.888;9.134;2023-04-25T11:24:33;97737.38;;;7.39
6550;BMP280;15142;48.888;9.134;2023-04-25T11:27:03;97733.56;;;7.47
6550;BMP280;15142;48.888;9.134;2023-04-25T11:29:34;97739.16;;;7.34
6550;BMP280;15142;48.888;9.134;2023-04-25T11:32:03;97735.34;;;7.37
6550;BMP280;15142;48.888;9.134;2023-04-25T11:34:33;97739.63;;;7.61
6550;BMP280;15142;48.888;9.134;2023-04-25T11:37:04;97739.31;;;7.77
6550;BMP280;15142;48.888;9.134;2023-04-25T11:39:34;97737.81;;;7.71
6550;BMP280;15142;48.888;9.134;2023-04-25T11:42:04;97745.72;;;7.74
6550;BMP280;15142;48.888;9.134;2023-04-25T11:44:33;97739.63;;;7.61
6550;BMP280;15142;48.888;9.134;2023-04-25T11:47:01;97740.41;;;7.51
6550;BMP280;15142;48.888;9.134;2023-04-25T11:49:30;97742.22;;;7.36
6550;BMP280;15142;48.888;9.134;2023-04-25T11:51:59;97752.34;;;7.41
6550;BMP280;15142;48.888;9.134;2023-04-25T11:54:30;97751.84;;;7.49
6550;BMP280;15142;48.888;9.134;2023-04-25T11:56:59;97755.16;;;7.44
6550;BMP280;15142;48.888;9.134;2023-04-25T11:59:27;97760.47;;;7.48
6550;BMP280;15142;48.888;9.134;2023-04-25T12:01:56;97760.22;;;7.49
6550;BMP280;15142;48.888;9.134;2023-04-25T12:04:30;97756.38;;;7.62
6550;BMP280;15142;48.888;9.134;2023-04-25T12:06:59;97759.91;;;7.75
6550;BMP280;15142;48.888;9.134;2023-04-25T12:09:32;97762.47;;;7.66
6550;BMP280;15142;48.888;9.134;2023-04-25T12:12:01;97764.81;;;7.42
6550;BMP280;15142;48.888;9.134;2023-04-25T12:14:33;97778.22;;;7.63
6550;BMP280;15142;48.888;9.134;2023-04-25T12:17:03;97761.97;;;7.59
6550;BMP280;15142;48.888;9.134;2023-04-25T12:19:34;97767.97;;;7.87
6550;BMP280;15142;48.888;9.134;2023-04-25T12:22:19;97770.69;;;8.20
6550;BMP280;15142;48.888;9.134;2023-04-25T12:24:50;97769.06;;;8.44
6550;BMP280;15142;48.888;9.134;2023-04-25T12:27:19;97779.22;;;9.15
6550;BMP280;15142;48.888;9.134;2023-04-25T12:29:52;97777.38;;;9.53
6550;BMP280;15142;48.888;9.134;2023-04-25T12:32:21;97780.44;;;9.78
6550;BMP280;15142;48.888;9.134;2023-04-25T12:34:49;97778.38;;;10.21
6550;BMP280;15142;48.888;9.134;2023-04-25T12:37:18;97775.31;;;10.01
6550;BMP280;15142;48.888;9.134;2023-04-25T12:39:49;97767.28;;;9.71
6550;BMP280;15142;48.888;9.134;2023-04-25T12:42:18;97775.91;;;9.47
6550;BMP280;15142;48.888;9.134;2023-04-25T12:44:47;97780.63;;;9.58
6550;BMP280;15142;48.888;9.134;2023-04-25T12:47:15;97783.47;;;9.80
6550;BMP280;15142;48.888;9.134;2023-04-25T12:49:44;97785.69;;;10.64
6550;BMP280;15142;48.888;9.134;2023-04-25T12:52:12;97786.81;;;9.99
6550;BMP280;15142;48.888;9.134;2023-04-25T12:54:41;97779.44;;;9.74
6550;BMP280;15142;48.888;9.134;2023-04-25T12:57:12;97775.97;;;9.88
6550;BMP280;15142;48.888;9.134;2023-04-25T12:59:41;97784.13;;;9.67
6550;BMP280;15142;48.888;9.134;2023-04-25T13:02:09;97784.63;;;9.41
6550;BMP280;15142;48.888;9.134;2023-04-25T13:04:38;97785.41;;;9.88
6550;BMP280;15142;48.888;9.134;2023-04-25T13:07:07;97779.84;;;9.63
6550;BMP280;15142;48.888;9.134;2023-04-25T13:09:35;97774.81;;;9.25
6550;BMP280;15142;48.888;9.134;2023-04-25T13:12:04;97780.91;;;9.29
6550;BMP280;15142;48.888;9.134;2023-04-25T13:14:35;97774.56;;;9.26
6550;BMP280;15142;48.888;9.134;2023-04-25T13:17:04;97781.22;;;9.23
6550;BMP280;15142;48.888;9.134;2023-04-25T13:19:33;97783.75;;;9.27
6550;BMP280;15142;48.888;9.134;2023-04-25T13:22:01;97778.56;;;9.37
6550;BMP280;15142;48.888;9.134;2023-04-25T13:24:30;97774.06;;;9.53
6550;BMP280;15142;48.888;9.134;2023-04-25T13:26:59;97779.50;;;9.46
6550;BMP280;15142;48.888;9.134;2023-04-25T13:29:27;97780.28;;;9.42
6550;BMP280;15142;48.888;9.134;2023-04-25T13:31:59;97783.66;;;9.37
6550;BMP280;15142;48.888;9.134;2023-04-25T13:34:29;97790.38;;;9.52
6550;BMP280;15142;48.888;9.134;2023-04-25T13:36:57;97789.00;;;9.87
6550;BMP280;15142;48.888;9.134;2023-04-25T13:39:26;97787.16;;;9.69
6550;BMP280;15142;48.888;9.134;2023-04-25T13:41:55;97794.16;;;10.23
6550;BMP280;15142;48.888;9.134;2023-04-25T13:44:24;97793.19;;;10.19
6550;BMP280;15142;48.888;9.134;2023-04-25T13:46:52;97794.78;;;9.92
6550;BMP280;15142;48.888;9.134;2023-04-25T13:49:23;97786.56;;;10.18
6550;BMP280;15142;48.888;9.134;2023-04-25T13:51:52;97793.00;;;10.34
6550;BMP280;15142;48.888;9.134;2023-04-25T13:54:21;97798.44;;;10.46
6550;BMP280;15142;48.888;9.134;2023-04-25T13:56:49;97794.56;;;10.30
6550;BMP280;15142;48.888;9.134;2023-04-25T13:59:20;97803.91;;;10.40
6550;BMP280;15142;48.888;9.134;2023-04-25T14:01:49;97796.66;;;10.28
6550;BMP280;15142;48.888;9.134;2023-04-25T14:04:17;97789.63;;;10.20
6550;BMP280;15142;48.888;9.134;2023-04-25T14:06:49;97794.84;;;10.83
6550;BMP280;15142;48.888;9.134;2023-04-25T14:09:18;97791.50;;;11.01
6550;BMP280;15142;48.888;9.134;2023-04-25T14:11:51;97796.69;;;10.65
6550;BMP280;15142;48.888;9.134;2023-04-25T14:14:19;97797.63;;;10.69
6550;BMP280;15142;48.888;9.134;2023-04-25T14:16:49;97787.53;;;10.22
6550;BMP280;15142;48.888;9.134;2023-04-25T14:19:20;97788.81;;;10.43
6550;BMP280;15142;48.888;9.134;2023-04-25T14:21:51;97794.09;;;10.83
6550;BMP280;15142;48.888;9.134;2023-04-25T14:24:19;97803.53;;;10.46
6550;BMP280;15142;48.888;9.134;2023-04-25T14:26:48;97792.38;;;10.42
6550;BMP280;15142;48.888;9.134;2023-04-25T14:29:17;97787.00;;;10.25
6550;BMP280;15142;48.888;9.134;2023-04-25T14:31:45;97797.91;;;10.49
6550;BMP280;15142;48.888;9.134;2023-04-25T14:34:14;97815.06;;;10.62
6550;BMP280;15142;48.888;9.134;2023-04-25T14:36:42;97813.41;;;10.89
6550;BMP280;15142;48.888;9.134;2023-04-25T14:39:13;97806.59;;;10.84
6550;BMP280;15142;48.888;9.134;2023-04-25T14:41:43;97806.09;;;10.64
6550;BMP280;15142;48.888;9.134;2023-04-25T14:44:11;97807.31;;;10.30
6550;BMP280;15142;48.888;9.134;2023-04-25T14:46:40;97808.50;;;10.19
6550;BMP280;15142;48.888;9.134;2023-04-25T14:49:09;97805.47;;;9.94
6550;BMP280;15142;48.888;9.134;2023-04-25T14:51:37;97810.75;;;10.21
6550;BMP280;15142;48.888;9.134;2023-04-25T14:54:06;97807.13;;;10.45
6550;BMP280;15142;48.888;9.134;2023-04-25T14:56:39;97814.38;;;10.56
6550;BMP280;15142;48.888;9.134;2023-04-25T14:59:07;97816.66;;;10.58
6550;BMP280;15142;48.888;9.134;2023-04-25T15:01:36;97812.88;;;10.74
6550;BMP280;15142;48.888;9.134;2023-04-25T15:04:04;97815.84;;;10.80